createdAt,value
2023-04-18T00:00:50.078Z,81.04
2023-04-18T00:01:50.158Z,80.93
2023-04-18T00:02:50.241Z,81.04
2023-04-18T00:03:50.180Z,81.04
2023-04-18T00:04:50.189Z,81.04
2023-04-18T00:05:49.995Z,81.14
2023-04-18T00:06:50.004Z,81.28
2023-04-18T00:07:49.964Z,81.38
2023-04-18T00:08:49.970Z,81.38
2023-04-18T00:09:49.952Z,81.49
2023-04-18T00:10:49.969Z,81.70
2023-04-18T00:11:49.937Z,81.80
2023-04-18T00:12:49.928Z,81.90
2023-04-18T00:13:49.929Z,81.80
2023-04-18T00:14:49.916Z,81.80
2023-04-18T00:15:49.872Z,81.80
2023-04-18T00:16:49.941Z,81.80
2023-04-18T00:17:49.910Z,81.70
2023-04-18T00:18:49.860Z,81.59
2023-04-18T00:19:49.869Z,81.59
2023-04-18T00:20:49.846Z,81.59
2023-04-18T00:21:49.861Z,81.70
2023-04-18T00:22:49.832Z,81.49
2023-04-18T00:23:49.814Z,81.38
2023-04-18T00:24:49.808Z,81.38
2023-04-18T00:25:49.805Z,81.38
2023-04-18T00:26:49.798Z,81.38
2023-04-18T00:27:49.769Z,81.38
2023-04-18T00:28:49.758Z,81.38
2023-04-18T00:29:49.746Z,81.38
2023-04-18T00:30:49.789Z,81.49
2023-04-18T00:31:49.724Z,81.59
2023-04-18T00:32:49.746Z,81.70
2023-04-18T00:33:49.717Z,81.80
2023-04-18T00:34:49.700Z,81.90
2023-04-18T00:35:49.688Z,81.90
2023-04-18T00:36:49.709Z,82.00
2023-04-18T00:37:49.676Z,82.00
2023-04-18T00:38:49.677Z,81.90
2023-04-18T00:39:49.688Z,81.70
2023-04-18T00:40:49.654Z,81.59
2023-04-18T00:41:49.635Z,81.59
2023-04-18T00:42:49.663Z,81.49
2023-04-18T00:43:49.594Z,81.49
2023-04-18T00:44:49.599Z,81.49
2023-04-18T00:45:49.604Z,81.38
2023-04-18T00:46:49.578Z,81.28
2023-04-18T00:47:49.618Z,81.28
2023-04-18T00:48:49.585Z,81.38
2023-04-18T00:49:49.542Z,81.38
2023-04-18T00:50:49.544Z,81.28
2023-04-18T00:51:49.524Z,81.38
2023-04-18T00:52:49.507Z,81.52
2023-04-18T00:53:49.490Z,81.52
2023-04-18T00:54:49.539Z,81.63
2023-04-18T00:55:49.478Z,81.73
2023-04-18T00:56:49.471Z,81.73
2023-04-18T00:57:49.455Z,81.63
2023-04-18T00:58:49.461Z,81.73
2023-04-18T00:59:49.451Z,81.73
2023-04-18T01:00:49.461Z,81.84
2023-04-18T01:01:49.478Z,81.94
2023-04-18T01:02:49.526Z,82.04
2023-04-18T01:03:49.478Z,82.15
2023-04-18T01:04:49.422Z,82.15
2023-04-18T01:05:49.403Z,82.25
2023-04-18T01:06:49.443Z,82.39
2023-04-18T01:07:49.376Z,82.50
2023-04-18T01:08:49.356Z,82.70
2023-04-18T01:09:49.360Z,82.70
2023-04-18T01:10:49.335Z,82.80
2023-04-18T01:11:49.651Z,82.80
2023-04-18T01:12:49.313Z,82.80
2023-04-18T01:13:49.311Z,82.70
2023-04-18T01:14:49.291Z,82.80
2023-04-18T01:15:49.338Z,82.90
2023-04-18T01:16:49.261Z,82.90
2023-04-18T01:17:49.330Z,83.01
2023-04-18T01:18:49.240Z,83.01
2023-04-18T01:19:49.254Z,83.32
2023-04-18T01:20:49.239Z,83.56
2023-04-18T01:21:49.234Z,83.67
2023-04-18T01:22:49.212Z,83.77
2023-04-18T01:23:49.219Z,83.56
2023-04-18T01:24:49.189Z,83.67
2023-04-18T01:25:49.208Z,83.67
2023-04-18T01:26:49.171Z,83.77
2023-04-18T01:27:49.176Z,83.67
2023-04-18T01:28:49.156Z,83.53
2023-04-18T01:29:49.181Z,83.56
2023-04-18T01:30:49.135Z,83.77
2023-04-18T01:31:49.181Z,83.98
2023-04-18T01:32:49.160Z,83.98
2023-04-18T01:33:49.114Z,83.98
2023-04-18T01:34:49.160Z,83.87
2023-04-18T01:35:49.116Z,83.98
2023-04-18T01:36:49.086Z,83.98
2023-04-18T01:37:49.066Z,83.98
2023-04-18T01:38:49.083Z,83.98
2023-04-18T01:39:49.064Z,84.08
2023-04-18T01:40:49.056Z,84.19
2023-04-18T01:41:49.045Z,84.05
2023-04-18T01:42:49.018Z,84.05
2023-04-18T01:43:48.993Z,83.94
2023-04-18T01:44:49.010Z,83.94
2023-04-18T01:45:48.981Z,83.94
2023-04-18T01:46:49.011Z,83.94
2023-04-18T01:47:49.217Z,83.94
2023-04-18T01:48:48.973Z,83.94
2023-04-18T01:49:48.947Z,83.94
2023-04-18T01:50:48.936Z,83.94
2023-04-18T01:51:48.958Z,83.84
2023-04-18T01:52:48.902Z,83.84
2023-04-18T01:53:48.898Z,83.70
2023-04-18T01:54:48.876Z,83.59
2023-04-18T01:55:48.905Z,83.49
2023-04-18T01:56:48.893Z,83.39
2023-04-18T01:57:48.891Z,83.39
2023-04-18T01:58:48.858Z,83.28
2023-04-18T01:59:48.851Z,83.28
2023-04-18T02:00:48.865Z,83.18
2023-04-18T02:01:48.850Z,83.18
2023-04-18T02:02:48.891Z,82.83
2023-04-18T02:03:48.962Z,82.73
2023-04-18T02:04:48.782Z,82.73
2023-04-18T02:05:48.786Z,82.73
2023-04-18T02:06:48.773Z,82.93
2023-04-18T02:07:48.753Z,82.93
2023-04-18T02:08:48.786Z,82.93
2023-04-18T02:09:48.738Z,83.04
2023-04-18T02:10:48.729Z,83.14
2023-04-18T02:11:48.728Z,83.14
2023-04-18T02:12:48.713Z,83.04
2023-04-18T02:13:48.730Z,82.93
2023-04-18T02:14:48.727Z,82.93
2023-04-18T02:15:48.714Z,83.04
2023-04-18T02:16:48.750Z,83.14
2023-04-18T02:17:48.689Z,83.14
2023-04-18T02:18:48.726Z,83.14
2023-04-18T02:19:48.640Z,83.25
2023-04-18T02:20:48.635Z,83.25
2023-04-18T02:21:48.619Z,83.39
2023-04-18T02:22:48.617Z,83.55
2023-04-18T02:23:48.602Z,83.55
2023-04-18T02:24:48.611Z,83.55
2023-04-18T02:25:48.609Z,83.34
2023-04-18T02:26:48.569Z,83.25
2023-04-18T02:27:48.581Z,83.14
2023-04-18T02:28:48.560Z,82.93
2023-04-18T02:29:48.573Z,82.73
2023-04-18T02:30:48.594Z,82.73
2023-04-18T02:31:48.603Z,82.62
2023-04-18T02:32:48.641Z,82.42
2023-04-18T02:33:48.529Z,82.31
2023-04-18T02:34:48.513Z,82.31
2023-04-18T02:35:48.525Z,82.21
2023-04-18T02:36:48.474Z,81.90
2023-04-18T02:37:48.470Z,81.90
2023-04-18T02:38:48.457Z,81.90
2023-04-18T02:39:48.448Z,81.90
2023-04-18T02:40:48.433Z,81.90
2023-04-18T02:41:48.454Z,82.00
2023-04-18T02:42:48.444Z,82.00
2023-04-18T02:43:48.420Z,81.90
2023-04-18T02:44:48.399Z,82.00
2023-04-18T02:45:48.485Z,82.10
2023-04-18T02:46:48.381Z,82.00
2023-04-18T02:47:55.338Z,81.90
2023-04-18T02:48:48.364Z,81.76
2023-04-18T02:49:48.359Z,81.56
2023-04-18T02:50:48.351Z,81.56
2023-04-18T02:51:48.332Z,81.24
2023-04-18T02:52:48.345Z,81.04
2023-04-18T02:53:48.326Z,80.93
2023-04-18T02:54:48.292Z,80.83
2023-04-18T02:55:48.308Z,80.83
2023-04-18T02:56:48.286Z,80.83
2023-04-18T02:57:48.287Z,80.62
2023-04-18T02:58:48.304Z,80.58
2023-04-18T02:59:48.250Z,80.38
2023-04-18T03:00:48.237Z,80.48
2023-04-18T03:01:48.376Z,80.38
2023-04-18T03:02:48.270Z,80.38
2023-04-18T03:03:48.207Z,80.38
2023-04-18T03:04:48.213Z,80.38
2023-04-18T03:05:48.214Z,80.69
2023-04-18T03:06:48.164Z,80.69
2023-04-18T03:07:48.176Z,80.38
2023-04-18T03:08:48.171Z,80.48
2023-04-18T03:09:48.194Z,80.48
2023-04-18T03:10:48.144Z,80.69
2023-04-18T03:11:48.140Z,80.69
2023-04-18T03:12:48.120Z,80.48
2023-04-18T03:13:48.131Z,80.58
2023-04-18T03:14:48.099Z,80.79
2023-04-18T03:15:48.382Z,80.90
2023-04-18T03:16:48.064Z,80.69
2023-04-18T03:17:48.088Z,80.79
2023-04-18T03:18:48.038Z,80.90
2023-04-18T03:19:48.053Z,81.00
2023-04-18T03:20:48.024Z,81.00
2023-04-18T03:21:48.040Z,80.79
2023-04-18T03:22:48.001Z,80.79
2023-04-18T03:23:48.032Z,80.79
2023-04-18T03:24:48.004Z,80.90
2023-04-18T03:25:47.993Z,80.69
2023-04-18T03:26:48.009Z,80.79
2023-04-18T03:27:47.970Z,80.79
2023-04-18T03:28:47.957Z,80.58
2023-04-18T03:29:47.945Z,80.69
2023-04-18T03:30:47.927Z,80.69
2023-04-18T03:31:47.992Z,80.79
2023-04-18T03:32:48.021Z,80.69
2023-04-18T03:33:47.927Z,80.65
2023-04-18T03:34:47.917Z,80.79
2023-04-18T03:35:47.937Z,80.76
2023-04-18T03:36:48.307Z,80.44
2023-04-18T03:37:47.923Z,80.44
2023-04-18T03:38:47.861Z,80.55
2023-04-18T03:39:47.832Z,80.34
2023-04-18T03:40:47.822Z,80.44
2023-04-18T03:41:47.824Z,80.65
2023-04-18T03:42:47.814Z,80.65
2023-04-18T03:43:47.821Z,80.76
2023-04-18T03:44:47.789Z,80.76
2023-04-18T03:45:47.814Z,80.55
2023-04-18T03:46:47.770Z,80.65
2023-04-18T03:47:47.807Z,80.76
2023-04-18T03:48:47.766Z,80.96
2023-04-18T03:49:47.798Z,81.27
2023-04-18T03:50:47.744Z,81.37
2023-04-18T03:51:47.911Z,81.48
2023-04-18T03:52:47.732Z,81.58
2023-04-18T03:53:47.715Z,81.58
2023-04-18T03:54:47.698Z,81.62
2023-04-18T03:55:47.729Z,81.62
2023-04-18T03:56:47.680Z,81.82
2023-04-18T03:57:47.688Z,81.93
2023-04-18T03:58:47.661Z,82.14
2023-04-18T03:59:48.011Z,82.24
2023-04-18T04:00:47.719Z,82.34
2023-04-18T04:01:47.696Z,82.24
2023-04-18T04:02:47.857Z,82.24
2023-04-18T04:03:47.809Z,82.14
2023-04-18T04:04:47.695Z,82.14
2023-04-18T04:05:47.604Z,82.24
2023-04-18T04:06:47.659Z,82.34
2023-04-18T04:07:47.588Z,82.20
2023-04-18T04:08:47.562Z,82.03
2023-04-18T04:09:47.545Z,82.20
2023-04-18T04:10:47.527Z,82.10
2023-04-18T04:11:47.573Z,82.30
2023-04-18T04:12:47.542Z,82.10
2023-04-18T04:13:47.517Z,82.24
2023-04-18T04:14:47.503Z,82.34
2023-04-18T04:15:47.508Z,82.45
2023-04-18T04:16:47.604Z,82.55
2023-04-18T04:17:47.527Z,82.75
2023-04-18T04:18:47.467Z,82.86
2023-04-18T04:19:47.459Z,82.65
2023-04-18T04:20:47.441Z,82.75
2023-04-18T04:21:47.420Z,82.86
2023-04-18T04:22:47.450Z,83.06
2023-04-18T04:23:47.420Z,83.06
2023-04-18T04:24:47.420Z,83.06
2023-04-18T04:25:47.386Z,82.96
2023-04-18T04:26:47.378Z,82.96
2023-04-18T04:27:47.374Z,83.17
2023-04-18T04:28:47.386Z,83.27
2023-04-18T04:29:47.345Z,83.13
2023-04-18T04:30:47.343Z,83.13
2023-04-18T04:31:47.345Z,83.03
2023-04-18T04:32:47.361Z,83.03
2023-04-18T04:33:47.324Z,82.92
2023-04-18T04:34:47.313Z,82.71
2023-04-18T04:35:47.280Z,82.82
2023-04-18T04:36:47.266Z,82.92
2023-04-18T04:37:47.272Z,82.92
2023-04-18T04:38:47.373Z,82.92
2023-04-18T04:39:47.247Z,82.92
2023-04-18T04:40:47.241Z,82.71
2023-04-18T04:41:47.232Z,82.82
2023-04-18T04:42:47.200Z,82.82
2023-04-18T04:43:47.218Z,82.82
2023-04-18T04:44:47.339Z,82.92
2023-04-18T04:45:47.251Z,82.92
2023-04-18T04:46:47.188Z,83.03
2023-04-18T04:47:47.223Z,83.03
2023-04-18T04:48:47.171Z,82.92
2023-04-18T04:49:47.148Z,82.92
2023-04-18T04:50:47.176Z,82.92
2023-04-18T04:51:47.100Z,82.92
2023-04-18T04:52:47.114Z,82.92
2023-04-18T04:53:47.086Z,82.82
2023-04-18T04:54:47.089Z,82.89
2023-04-18T04:55:47.106Z,82.98
2023-04-18T04:56:47.069Z,82.98
2023-04-18T04:57:47.047Z,83.09
2023-04-18T04:58:47.043Z,83.09
2023-04-18T04:59:47.047Z,83.09
2023-04-18T05:00:47.037Z,83.19
2023-04-18T05:01:47.159Z,83.09
2023-04-18T05:02:47.182Z,82.98
2023-04-18T05:03:47.149Z,82.89
2023-04-18T05:04:46.992Z,82.78
2023-04-18T05:05:46.970Z,82.68
2023-04-18T05:06:46.976Z,82.68
2023-04-18T05:07:47.011Z,82.57
2023-04-18T05:08:46.954Z,82.68
2023-04-18T05:09:46.942Z,82.68
2023-04-18T05:10:46.942Z,82.57
2023-04-18T05:11:46.929Z,82.78
2023-04-18T05:12:46.910Z,82.78
2023-04-18T05:13:46.922Z,82.78
2023-04-18T05:14:46.892Z,82.57
2023-04-18T05:15:46.893Z,82.68
2023-04-18T05:16:46.920Z,82.47
2023-04-18T05:17:46.890Z,82.47
2023-04-18T05:18:46.863Z,82.68
2023-04-18T05:19:46.841Z,82.47
2023-04-18T05:20:46.833Z,82.47
2023-04-18T05:21:46.822Z,82.47
2023-04-18T05:22:46.801Z,82.68
2023-04-18T05:23:46.806Z,82.68
2023-04-18T05:24:46.813Z,82.68
2023-04-18T05:25:46.782Z,82.57
2023-04-18T05:26:46.837Z,82.43
2023-04-18T05:27:46.785Z,82.26
2023-04-18T05:28:46.756Z,82.47
2023-04-18T05:29:46.776Z,82.64
2023-04-18T05:30:46.804Z,82.64
2023-04-18T05:31:46.705Z,82.54
2023-04-18T05:32:46.747Z,82.33
2023-04-18T05:33:46.688Z,82.23
2023-04-18T05:34:46.688Z,82.12
2023-04-18T05:35:46.705Z,82.23
2023-04-18T05:36:46.678Z,82.33
2023-04-18T05:37:46.663Z,82.43
2023-04-18T05:38:46.655Z,82.33
2023-04-18T05:39:46.632Z,82.33
2023-04-18T05:40:46.639Z,82.33
2023-04-18T05:41:46.612Z,82.57
2023-04-18T05:42:46.606Z,82.64
2023-04-18T05:43:57.841Z,82.74
2023-04-18T05:44:46.590Z,82.64
2023-04-18T05:45:46.717Z,82.54
2023-04-18T05:46:46.684Z,82.54
2023-04-18T05:47:46.596Z,82.74
2023-04-18T05:48:46.551Z,82.64
2023-04-18T05:49:46.547Z,82.74
2023-04-18T05:50:46.560Z,82.64
2023-04-18T05:51:46.552Z,82.74
2023-04-18T05:52:46.520Z,82.54
2023-04-18T05:53:46.488Z,82.64
2023-04-18T05:54:46.503Z,82.74
2023-04-18T05:55:46.511Z,82.95
2023-04-18T05:56:46.469Z,82.84
2023-04-18T05:57:46.470Z,82.74
2023-04-18T05:58:46.455Z,82.74
2023-04-18T05:59:46.426Z,82.74
2023-04-18T06:00:46.427Z,82.43
2023-04-18T06:01:46.409Z,82.23
2023-04-18T06:02:46.695Z,82.19
2023-04-18T06:03:46.623Z,82.19
2023-04-18T06:04:46.515Z,81.88
2023-04-18T06:05:46.407Z,81.47
2023-04-18T06:06:46.367Z,81.47
2023-04-18T06:07:46.362Z,81.37
2023-04-18T06:08:46.358Z,80.95
2023-04-18T06:09:46.338Z,80.85
2023-04-18T06:10:46.330Z,80.91
2023-04-18T06:11:46.324Z,81.02
2023-04-18T06:12:46.344Z,80.71
2023-04-18T06:13:46.295Z,80.19
2023-04-18T06:14:46.320Z,79.88
2023-04-18T06:15:46.306Z,79.99
2023-04-18T06:16:46.283Z,79.99
2023-04-18T06:17:46.282Z,79.99
2023-04-18T06:18:46.254Z,80.05
2023-04-18T06:19:46.252Z,79.64
2023-04-18T06:20:46.212Z,79.23
2023-04-18T06:21:46.208Z,79.13
2023-04-18T06:22:46.191Z,79.09
2023-04-18T06:23:46.166Z,78.78
2023-04-18T06:24:46.190Z,78.58
2023-04-18T06:25:46.193Z,78.68
2023-04-18T06:26:46.160Z,78.03
2023-04-18T06:27:46.162Z,78.23
2023-04-18T06:28:46.161Z,78.13
2023-04-18T06:29:46.130Z,77.31
2023-04-18T06:30:46.147Z,77.20
2023-04-18T06:31:46.216Z,77.31
2023-04-18T06:32:46.166Z,77.00
2023-04-18T06:33:46.089Z,76.90
2023-04-18T06:34:46.090Z,77.10
2023-04-18T06:35:46.061Z,76.90
2023-04-18T06:36:46.075Z,77.20
2023-04-18T06:37:46.056Z,77.20
2023-04-18T06:38:46.034Z,77.31
2023-04-18T06:39:46.045Z,77.51
2023-04-18T06:40:46.024Z,77.51
2023-04-18T06:41:46.037Z,77.31
2023-04-18T06:42:46.004Z,77.41
2023-04-18T06:43:59.729Z,77.41
2023-04-18T06:44:46.005Z,77.20
2023-04-18T06:45:46.078Z,77.20
2023-04-18T06:46:45.980Z,77.41
2023-04-18T06:47:46.001Z,77.51
2023-04-18T06:48:45.942Z,77.51
2023-04-18T06:49:45.972Z,77.51
2023-04-18T06:50:45.920Z,77.37
2023-04-18T06:51:45.901Z,77.27
2023-04-18T06:52:45.955Z,77.17
2023-04-18T06:53:45.887Z,76.97
2023-04-18T06:54:45.887Z,76.86
2023-04-18T06:55:45.851Z,76.86
2023-04-18T06:56:45.853Z,76.76
2023-04-18T06:57:45.844Z,76.65
2023-04-18T06:58:45.876Z,76.55
2023-04-18T06:59:45.847Z,76.55
2023-04-18T07:00:45.889Z,76.55
2023-04-18T07:01:45.820Z,76.65
2023-04-18T07:02:45.996Z,76.86
2023-04-18T07:03:45.965Z,76.86
2023-04-18T07:04:45.852Z,76.97
2023-04-18T07:05:45.762Z,76.97
2023-04-18T07:06:45.777Z,77.06
2023-04-18T07:07:45.739Z,77.17
2023-04-18T07:08:45.722Z,77.17
2023-04-18T07:09:45.723Z,77.27
2023-04-18T07:10:45.741Z,77.37
2023-04-18T07:11:45.747Z,77.48
2023-04-18T07:12:45.704Z,77.75
2023-04-18T07:13:45.702Z,77.65
2023-04-18T07:14:45.681Z,77.65
2023-04-18T07:15:45.652Z,77.55
2023-04-18T07:16:45.710Z,77.55
2023-04-18T07:17:45.697Z,77.13
2023-04-18T07:18:45.653Z,77.34
2023-04-18T07:19:45.605Z,77.55
2023-04-18T07:20:45.613Z,77.81
2023-04-18T07:21:45.596Z,77.51
2023-04-18T07:22:45.642Z,77.10
2023-04-18T07:23:45.583Z,77.20
2023-04-18T07:24:45.571Z,77.00
2023-04-18T07:25:45.565Z,76.48
2023-04-18T07:26:45.579Z,76.86
2023-04-18T07:27:45.541Z,76.65
2023-04-18T07:28:45.580Z,76.45
2023-04-18T07:29:45.518Z,76.41
2023-04-18T07:30:45.538Z,76.00
2023-04-18T07:31:45.490Z,76.00
2023-04-18T07:32:45.498Z,76.31
2023-04-18T07:33:45.461Z,76.00
2023-04-18T07:34:45.499Z,76.20
2023-04-18T07:35:45.465Z,76.17
2023-04-18T07:36:45.445Z,75.59
2023-04-18T07:37:45.930Z,75.49
2023-04-18T07:38:45.426Z,76.00
2023-04-18T07:39:45.440Z,76.41
2023-04-18T07:40:45.417Z,76.20
2023-04-18T07:41:45.414Z,75.69
2023-04-18T07:42:45.400Z,75.49
2023-04-18T07:43:45.382Z,76.00
2023-04-18T07:44:45.375Z,75.79
2023-04-18T07:45:45.358Z,75.79
2023-04-18T07:46:45.401Z,76.20
2023-04-18T07:47:45.378Z,76.41
2023-04-18T07:48:45.384Z,76.10
2023-04-18T07:49:45.312Z,76.00
2023-04-18T07:50:45.352Z,75.79
2023-04-18T07:51:45.316Z,76.00
2023-04-18T07:52:45.295Z,76.10
2023-04-18T07:53:45.287Z,76.10
2023-04-18T07:54:45.310Z,76.10
2023-04-18T07:55:45.252Z,76.00
2023-04-18T07:56:45.253Z,75.90
2023-04-18T07:57:46.421Z,75.90
2023-04-18T07:58:45.233Z,76.20
2023-04-18T07:59:45.204Z,76.10
2023-04-18T08:00:45.265Z,75.79
2023-04-18T08:01:45.196Z,76.17
2023-04-18T08:02:45.260Z,75.96
2023-04-18T08:03:45.287Z,75.66
2023-04-18T08:04:45.353Z,75.45
2023-04-18T08:05:45.183Z,75.24
2023-04-18T08:06:45.166Z,75.24
2023-04-18T08:07:45.189Z,74.53
2023-04-18T08:08:45.146Z,74.73
2023-04-18T08:09:45.120Z,74.73
2023-04-18T08:10:45.113Z,74.90
2023-04-18T08:11:45.125Z,74.90
2023-04-18T08:12:45.079Z,74.49
2023-04-18T08:13:45.076Z,74.90
2023-04-18T08:14:45.079Z,74.87
2023-04-18T08:15:45.109Z,74.46
2023-04-18T08:16:45.143Z,74.05
2023-04-18T08:17:45.080Z,73.20
2023-04-18T08:18:45.029Z,72.58
2023-04-18T08:19:45.019Z,72.48
2023-04-18T08:20:44.999Z,72.38
2023-04-18T08:21:44.979Z,72.14
2023-04-18T08:23:04.214Z,72.14
2023-04-18T08:23:44.963Z,71.83
2023-04-18T08:25:01.029Z,71.83
2023-04-18T08:25:44.946Z,71.83
2023-04-18T08:26:44.941Z,71.94
2023-04-18T08:27:44.955Z,71.94
2023-04-18T08:28:46.568Z,71.32
2023-04-18T08:29:44.913Z,71.01
2023-04-18T08:30:44.901Z,71.12
2023-04-18T08:31:44.966Z,71.12
2023-04-18T08:32:44.939Z,70.94
2023-04-18T08:33:44.926Z,71.25
2023-04-18T08:34:44.859Z,71.45
2023-04-18T08:35:44.847Z,71.15
2023-04-18T08:36:44.845Z,70.64
2023-04-18T08:37:44.810Z,70.94
2023-04-18T08:38:45.279Z,71.25
2023-04-18T08:39:44.796Z,71.04
2023-04-18T08:40:44.792Z,71.22
2023-04-18T08:41:44.767Z,71.22
2023-04-18T08:42:44.785Z,71.12
2023-04-18T08:43:44.770Z,70.98
2023-04-18T08:44:44.783Z,70.26
2023-04-18T08:45:44.850Z,69.96
2023-04-18T08:46:44.754Z,70.06
2023-04-18T08:47:44.779Z,70.13
2023-04-18T08:48:44.718Z,70.23
2023-04-18T08:49:44.736Z,70.43
2023-04-18T08:50:44.693Z,70.43
2023-04-18T08:51:44.711Z,70.51
2023-04-18T08:52:44.691Z,70.61
2023-04-18T08:53:44.700Z,69.79
2023-04-18T08:54:44.663Z,69.56
2023-04-18T08:55:44.691Z,68.84
2023-04-18T08:56:44.642Z,68.84
2023-04-18T08:57:44.650Z,67.89
2023-04-18T08:58:44.618Z,67.48
2023-04-18T08:59:45.951Z,67.04
2023-04-18T09:00:44.583Z,66.83
2023-04-18T09:01:44.695Z,66.42
2023-04-18T09:02:45.166Z,66.30
2023-04-18T09:03:44.600Z,65.99
2023-04-18T09:04:44.558Z,65.68
2023-04-18T09:05:44.559Z,65.58
2023-04-18T09:06:44.551Z,65.68
2023-04-18T09:07:44.529Z,65.95
2023-04-18T09:08:44.560Z,65.95
2023-04-18T09:09:44.507Z,65.89
2023-04-18T09:10:46.526Z,65.37
2023-04-18T09:11:44.484Z,65.89
2023-04-18T09:12:44.511Z,65.99
2023-04-18T09:13:44.451Z,66.12
2023-04-18T09:14:44.450Z,66.33
2023-04-18T09:15:44.437Z,66.63
2023-04-18T09:16:44.458Z,67.14
2023-04-18T09:17:44.476Z,67.01
2023-04-18T09:18:44.450Z,67.11
2023-04-18T09:19:44.418Z,66.70
2023-04-18T09:20:44.404Z,66.70
2023-04-18T09:21:44.561Z,66.60
2023-04-18T09:22:44.380Z,67.11
2023-04-18T09:23:44.394Z,67.52
2023-04-18T09:24:44.354Z,67.01
2023-04-18T09:25:45.264Z,67.62
2023-04-18T09:26:44.331Z,66.70
2023-04-18T09:27:44.319Z,67.01
2023-04-18T09:28:44.300Z,66.91
2023-04-18T09:29:44.329Z,66.67
2023-04-18T09:30:44.326Z,65.78
2023-04-18T09:31:44.292Z,66.50
2023-04-18T09:32:44.330Z,66.30
2023-04-18T09:33:44.277Z,66.60
2023-04-18T09:34:44.293Z,66.60
2023-04-18T09:35:44.249Z,65.99
2023-04-18T09:36:44.294Z,66.39
2023-04-18T09:37:44.238Z,66.09
2023-04-18T09:38:44.235Z,65.89
2023-04-18T09:39:44.194Z,66.39
2023-04-18T09:40:44.206Z,65.89
2023-04-18T09:41:44.186Z,65.89
2023-04-18T09:42:44.154Z,65.48
2023-04-18T09:43:44.160Z,65.89
2023-04-18T09:44:44.285Z,66.30
2023-04-18T09:45:44.161Z,66.60
2023-04-18T09:46:46.564Z,66.30
2023-04-18T09:47:44.190Z,66.60
2023-04-18T09:48:44.143Z,67.01
2023-04-18T09:49:44.135Z,67.11
2023-04-18T09:50:44.144Z,67.08
2023-04-18T09:51:44.102Z,66.97
2023-04-18T09:52:44.093Z,66.88
2023-04-18T09:53:44.061Z,66.77
2023-04-18T09:54:44.035Z,66.57
2023-04-18T09:55:44.052Z,66.36
2023-04-18T09:56:44.035Z,66.47
2023-04-18T09:57:44.435Z,65.86
2023-04-18T09:58:44.012Z,65.95
2023-04-18T09:59:43.996Z,66.27
2023-04-18T10:00:46.361Z,66.16
2023-04-18T10:01:44.045Z,66.67
2023-04-18T10:02:44.045Z,66.06
2023-04-18T10:03:44.036Z,66.36
2023-04-18T10:04:44.108Z,66.67
2023-04-18T10:05:44.083Z,66.88
2023-04-18T10:06:43.929Z,67.18
2023-04-18T10:07:43.908Z,67.38
2023-04-18T10:08:43.921Z,66.88
2023-04-18T10:09:43.915Z,67.08
2023-04-18T10:10:43.875Z,67.49
2023-04-18T10:11:43.908Z,66.97
2023-04-18T10:12:43.870Z,67.08
2023-04-18T10:13:43.863Z,66.77
2023-04-18T10:14:43.880Z,66.94
2023-04-18T10:15:44.382Z,66.94
2023-04-18T10:16:43.910Z,66.85
2023-04-18T10:17:56.246Z,66.33
2023-04-18T10:18:43.817Z,66.54
2023-04-18T10:19:43.799Z,65.42
2023-04-18T10:20:43.811Z,65.42
2023-04-18T10:21:43.769Z,65.01
2023-04-18T10:22:43.769Z,65.11
2023-04-18T10:23:43.767Z,65.42
2023-04-18T10:24:43.749Z,65.83
2023-04-18T10:25:43.737Z,65.31
2023-04-18T10:26:43.753Z,65.42
2023-04-18T10:27:43.705Z,65.83
2023-04-18T10:28:43.703Z,66.13
2023-04-18T10:29:43.692Z,65.62
2023-04-18T10:30:43.741Z,65.72
2023-04-18T10:31:43.685Z,65.42
2023-04-18T10:32:43.735Z,64.60
2023-04-18T10:33:43.841Z,65.01
2023-04-18T10:34:43.656Z,64.87
2023-04-18T10:35:43.650Z,65.08
2023-04-18T10:36:43.639Z,65.08
2023-04-18T10:37:43.618Z,64.06
2023-04-18T10:38:43.683Z,64.37
2023-04-18T10:39:43.595Z,64.67
2023-04-18T10:40:43.586Z,64.37
2023-04-18T10:41:43.583Z,63.86
2023-04-18T10:42:43.793Z,63.86
2023-04-18T10:43:43.547Z,63.65
2023-04-18T10:44:43.526Z,63.56
2023-04-18T10:45:43.548Z,63.93
2023-04-18T10:46:43.536Z,63.62
2023-04-18T10:47:43.739Z,63.32
2023-04-18T10:48:43.516Z,63.29
2023-04-18T10:49:43.481Z,63.49
2023-04-18T10:50:43.477Z,62.88
2023-04-18T10:51:43.475Z,62.98
2023-04-18T10:52:43.476Z,63.19
2023-04-18T10:53:43.486Z,63.39
2023-04-18T10:54:43.453Z,62.68
2023-04-18T10:55:43.437Z,62.45
2023-04-18T10:56:43.438Z,61.74
2023-04-18T10:57:43.441Z,62.14
2023-04-18T10:58:43.409Z,62.65
2023-04-18T10:59:43.767Z,62.65
2023-04-18T11:00:43.387Z,61.94
2023-04-18T11:01:43.389Z,62.14
2023-04-18T11:02:43.495Z,62.14
2023-04-18T11:03:43.541Z,61.30
2023-04-18T11:04:43.331Z,61.20
2023-04-18T11:05:43.348Z,61.20
2023-04-18T11:06:43.311Z,60.89
2023-04-18T11:07:43.319Z,59.77
2023-04-18T11:08:43.305Z,59.77
2023-04-18T11:09:45.466Z,59.77
2023-04-18T11:10:43.344Z,59.47
2023-04-18T11:11:43.292Z,59.24
2023-04-18T11:12:43.275Z,59.54
2023-04-18T11:13:43.301Z,59.84
2023-04-18T11:14:43.247Z,60.15
2023-04-18T11:15:43.214Z,60.15
2023-04-18T11:16:43.276Z,60.76
2023-04-18T11:17:43.263Z,60.86
2023-04-18T11:18:43.188Z,61.07
2023-04-18T11:19:43.182Z,61.07
2023-04-18T11:20:43.160Z,61.07
2023-04-18T11:21:43.200Z,61.07
2023-04-18T11:22:43.139Z,61.47
2023-04-18T11:23:43.156Z,61.57
2023-04-18T11:24:43.135Z,61.88
2023-04-18T11:25:43.140Z,62.08
2023-04-18T11:26:43.125Z,61.88
2023-04-18T11:27:43.127Z,61.78
2023-04-18T11:28:43.086Z,61.60
2023-04-18T11:29:43.089Z,62.21
2023-04-18T11:30:43.080Z,61.60
2023-04-18T11:31:43.160Z,62.18
2023-04-18T11:32:43.131Z,62.32
2023-04-18T11:33:43.063Z,62.11
2023-04-18T11:34:43.031Z,62.52
2023-04-18T11:35:43.040Z,62.62
2023-04-18T11:36:43.019Z,62.21
2023-04-18T11:37:43.032Z,62.35
2023-04-18T11:38:43.060Z,62.52
2023-04-18T11:39:43.003Z,62.62
2023-04-18T11:40:42.962Z,62.35
2023-04-18T11:41:42.967Z,61.63
2023-04-18T11:42:42.952Z,61.74
2023-04-18T11:43:42.923Z,62.14
2023-04-18T11:44:42.931Z,62.14
2023-04-18T11:45:42.956Z,62.45
2023-04-18T11:46:42.889Z,62.35
2023-04-18T11:47:43.229Z,62.55
2023-04-18T11:48:42.899Z,62.04
2023-04-18T11:49:42.932Z,61.53
2023-04-18T11:50:42.884Z,61.63
2023-04-18T11:51:42.866Z,61.33
2023-04-18T11:52:42.961Z,61.22
2023-04-18T11:53:42.847Z,61.02
2023-04-18T11:54:42.851Z,61.43
2023-04-18T11:55:42.850Z,61.63
2023-04-18T11:56:42.910Z,61.43
2023-04-18T11:57:42.797Z,61.63
2023-04-18T11:58:42.774Z,61.63
2023-04-18T11:59:42.773Z,62.04
2023-04-18T12:00:42.775Z,61.94
2023-04-18T12:01:42.812Z,62.24
2023-04-18T12:02:42.919Z,62.14
2023-04-18T12:03:42.988Z,62.35
2023-04-18T12:04:43.062Z,62.55
2023-04-18T12:05:42.879Z,62.75
2023-04-18T12:06:42.867Z,62.65
2023-04-18T12:07:42.704Z,62.24
2023-04-18T12:08:42.676Z,62.14
2023-04-18T12:09:42.661Z,61.83
2023-04-18T12:10:42.644Z,62.45
2023-04-18T12:11:42.665Z,62.35
2023-04-18T12:12:42.666Z,62.45
2023-04-18T12:13:42.648Z,62.65
2023-04-18T12:14:42.634Z,62.14
2023-04-18T12:15:42.652Z,61.53
2023-04-18T12:16:42.603Z,61.33
2023-04-18T12:17:42.660Z,61.74
2023-04-18T12:18:42.590Z,61.74
2023-04-18T12:19:42.566Z,62.04
2023-04-18T12:20:42.551Z,62.24
2023-04-18T12:21:42.560Z,62.14
2023-04-18T12:22:42.525Z,61.43
2023-04-18T12:23:42.546Z,61.30
2023-04-18T12:24:42.503Z,61.81
2023-04-18T12:25:42.509Z,60.99
2023-04-18T12:26:42.481Z,59.84
2023-04-18T12:27:42.509Z,60.05
2023-04-18T12:28:42.513Z,60.56
2023-04-18T12:29:42.480Z,60.22
2023-04-18T12:30:42.460Z,60.63
2023-04-18T12:31:42.466Z,60.94
2023-04-18T12:32:42.546Z,60.63
2023-04-18T12:33:42.430Z,60.53
2023-04-18T12:34:42.482Z,60.36
2023-04-18T12:35:42.418Z,60.66
2023-04-18T12:36:42.405Z,61.17
2023-04-18T12:37:42.387Z,61.07
2023-04-18T12:38:42.382Z,60.76
2023-04-18T12:39:42.389Z,60.76
2023-04-18T12:40:42.396Z,60.36
2023-04-18T12:41:42.348Z,60.36
2023-04-18T12:42:42.336Z,60.76
2023-04-18T12:43:42.310Z,60.56
2023-04-18T12:44:42.301Z,60.36
2023-04-18T12:45:42.310Z,60.15
2023-04-18T12:46:42.372Z,60.13
2023-04-18T12:47:42.316Z,58.60
2023-04-18T12:48:42.267Z,59.72
2023-04-18T12:49:42.245Z,59.92
2023-04-18T12:50:42.252Z,58.47
2023-04-18T12:51:42.268Z,58.98
2023-04-18T12:52:42.234Z,59.08